sensor_id;sensor_type;location;lat;lon;timestamp;P1;durP1;ratioP1;P2;durP2;ratioP2
52508;SDS011;38420;53.150;6.370;2023-07-20T00:02:20;5.18;;;4.68;;
52508;SDS011;38420;53.150;6.370;2023-07-20T00:04:46;4.95;;;3.88;;
52508;SDS011;38420;53.150;6.370;2023-07-20T00:07:11;4.32;;;3.80;;
52508;SDS011;38420;53.150;6.370;2023-07-20T00:09:37;4.50;;;3.88;;
52508;SDS011;38420;53.150;6.370;2023-07-20T00:12:03;7.10;;;4.70;;
52508;SDS011;38420;53.150;6.370;2023-07-20T00:14:28;5.90;;;4.60;;
52508;SDS011;38420;53.150;6.370;2023-07-20T00:16:55;5.70;;;5.05;;
52508;SDS011;38420;53.150;6.370;2023-07-20T00:19:24;5.15;;;4.65;;
52508;SDS011;38420;53.150;6.370;2023-07-20T00:21:51;6.80;;;5.65;;
52508;SDS011;38420;53.150;6.370;2023-07-20T00:24:17;9.63;;;6.28;;
52508;SDS011;38420;53.150;6.370;2023-07-20T00:26:43;7.63;;;6.10;;
52508;SDS011;38420;53.150;6.370;2023-07-20T00:29:09;7.43;;;6.38;;
52508;SDS011;38420;53.150;6.370;2023-07-20T00:31:35;8.57;;;6.00;;
52508;SDS011;38420;53.150;6.370;2023-07-20T00:34:02;8.43;;;6.72;;
52508;SDS011;38420;53.150;6.370;2023-07-20T00:36:28;6.97;;;5.70;;
52508;SDS011;38420;53.150;6.370;2023-07-20T00:38:54;9.15;;;7.07;;
52508;SDS011;38420;53.150;6.370;2023-07-20T00:41:20;7.95;;;7.15;;
52508;SDS011;38420;53.150;6.370;2023-07-20T00:43:45;7.80;;;7.03;;
52508;SDS011;38420;53.150;6.370;2023-07-20T00:46:11;8.80;;;7.13;;
52508;SDS011;38420;53.150;6.370;2023-07-20T00:48:37;8.65;;;7.70;;
52508;SDS011;38420;53.150;6.370;2023-07-20T00:51:03;9.68;;;7.45;;
52508;SDS011;38420;53.150;6.370;2023-07-20T00:53:29;10.60;;;7.97;;
52508;SDS011;38420;53.150;6.370;2023-07-20T00:55:55;8.95;;;7.47;;
52508;SDS011;38420;53.150;6.370;2023-07-20T00:58:21;9.60;;;7.65;;
52508;SDS011;38420;53.150;6.370;2023-07-20T01:00:48;9.63;;;7.20;;
52508;SDS011;38420;53.150;6.370;2023-07-20T01:03:13;7.63;;;6.32;;
52508;SDS011;38420;53.150;6.370;2023-07-20T01:05:48;9.02;;;6.93;;
52508;SDS011;38420;53.150;6.370;2023-07-20T01:11:06;7.40;;;6.70;;
52508;SDS011;38420;53.150;6.370;2023-07-20T01:13:49;7.82;;;7.03;;
52508;SDS011;38420;53.150;6.370;2023-07-20T01:16:15;9.50;;;7.63;;
52508;SDS011;38420;53.150;6.370;2023-07-20T01:18:41;9.05;;;7.47;;
52508;SDS011;38420;53.150;6.370;2023-07-20T01:21:09;9.02;;;6.97;;
52508;SDS011;38420;53.150;6.370;2023-07-20T01:23:49;9.68;;;7.00;;
52508;SDS011;38420;53.150;6.370;2023-07-20T01:29:17;9.05;;;6.95;;
52508;SDS011;38420;53.150;6.370;2023-07-20T01:31:52;8.82;;;6.68;;
52508;SDS011;38420;53.150;6.370;2023-07-20T01:34:20;11.55;;;7.25;;
52508;SDS011;38420;53.150;6.370;2023-07-20T01:36:48;7.85;;;6.45;;
52508;SDS011;38420;53.150;6.370;2023-07-20T01:39:15;10.38;;;6.50;;
52508;SDS011;38420;53.150;6.370;2023-07-20T01:41:42;9.32;;;6.65;;
52508;SDS011;38420;53.150;6.370;2023-07-20T01:44:08;9.10;;;6.20;;
52508;SDS011;38420;53.150;6.370;2023-07-20T01:46:34;8.35;;;6.32;;
52508;SDS011;38420;53.150;6.370;2023-07-20T01:48:59;6.97;;;6.28;;
52508;SDS011;38420;53.150;6.370;2023-07-20T01:51:25;12.55;;;7.03;;
52508;SDS011;38420;53.150;6.370;2023-07-20T01:53:51;7.68;;;6.22;;
52508;SDS011;38420;53.150;6.370;2023-07-20T01:56:16;6.85;;;6.15;;
52508;SDS011;38420;53.150;6.370;2023-07-20T01:58:42;9.38;;;7.00;;
52508;SDS011;38420;53.150;6.370;2023-07-20T02:01:07;7.57;;;6.78;;
52508;SDS011;38420;53.150;6.370;2023-07-20T02:03:33;9.65;;;7.05;;
52508;SDS011;38420;53.150;6.370;2023-07-20T02:05:59;8.05;;;7.20;;
52508;SDS011;38420;53.150;6.370;2023-07-20T02:08:24;8.80;;;6.22;;
52508;SDS011;38420;53.150;6.370;2023-07-20T02:10:50;8.13;;;6.57;;
52508;SDS011;38420;53.150;6.370;2023-07-20T02:13:16;7.68;;;6.22;;
52508;SDS011;38420;53.150;6.370;2023-07-20T02:15:42;6.22;;;5.63;;
52508;SDS011;38420;53.150;6.370;2023-07-20T02:18:07;8.13;;;5.40;;
52508;SDS011;38420;53.150;6.370;2023-07-20T02:20:34;5.97;;;5.38;;
52508;SDS011;38420;53.150;6.370;2023-07-20T02:23:00;6.30;;;5.30;;
52508;SDS011;38420;53.150;6.370;2023-07-20T02:25:25;6.85;;;5.47;;
52508;SDS011;38420;53.150;6.370;2023-07-20T02:27:52;6.13;;;5.45;;
52508;SDS011;38420;53.150;6.370;2023-07-20T02:30:17;5.85;;;4.95;;
52508;SDS011;38420;53.150;6.370;2023-07-20T02:32:43;9.10;;;6.30;;
52508;SDS011;38420;53.150;6.370;2023-07-20T02:35:14;6.25;;;5.65;;
52508;SDS011;38420;53.150;6.370;2023-07-20T02:37:40;6.65;;;5.07;;
52508;SDS011;38420;53.150;6.370;2023-07-20T02:40:05;6.03;;;5.43;;
52508;SDS011;38420;53.150;6.370;2023-07-20T02:42:32;7.30;;;5.97;;
52508;SDS011;38420;53.150;6.370;2023-07-20T02:44:58;5.60;;;5.10;;
52508;SDS011;38420;53.150;6.370;2023-07-20T02:47:23;6.68;;;5.68;;
52508;SDS011;38420;53.150;6.370;2023-07-20T02:49:49;6.85;;;5.95;;
52508;SDS011;38420;53.150;6.370;2023-07-20T02:52:15;9.40;;;6.03;;
52508;SDS011;38420;53.150;6.370;2023-07-20T02:54:40;7.63;;;6.05;;
52508;SDS011;38420;53.150;6.370;2023-07-20T02:57:06;7.40;;;6.03;;
52508;SDS011;38420;53.150;6.370;2023-07-20T02:59:32;6.22;;;5.50;;
52508;SDS011;38420;53.150;6.370;2023-07-20T03:01:57;6.57;;;5.88;;
52508;SDS011;38420;53.150;6.370;2023-07-20T03:04:25;6.90;;;5.43;;
52508;SDS011;38420;53.150;6.370;2023-07-20T03:06:52;10.85;;;6.07;;
52508;SDS011;38420;53.150;6.370;2023-07-20T03:09:18;5.80;;;5.20;;
52508;SDS011;38420;53.150;6.370;2023-07-20T03:11:43;6.85;;;5.20;;
52508;SDS011;38420;53.150;6.370;2023-07-20T03:14:09;8.48;;;5.85;;
52508;SDS011;38420;53.150;6.370;2023-07-20T03:16:35;6.25;;;5.40;;
52508;SDS011;38420;53.150;6.370;2023-07-20T03:19:01;7.35;;;5.55;;
52508;SDS011;38420;53.150;6.370;2023-07-20T03:21:27;8.10;;;5.80;;
52508;SDS011;38420;53.150;6.370;2023-07-20T03:23:53;5.90;;;4.78;;
52508;SDS011;38420;53.150;6.370;2023-07-20T03:26:19;7.07;;;5.20;;
52508;SDS011;38420;53.150;6.370;2023-07-20T03:28:45;6.70;;;5.57;;
52508;SDS011;38420;53.150;6.370;2023-07-20T03:31:10;6.00;;;5.35;;
52508;SDS011;38420;53.150;6.370;2023-07-20T03:33:36;8.05;;;5.88;;
52508;SDS011;38420;53.150;6.370;2023-07-20T03:36:02;7.22;;;5.38;;
52508;SDS011;38420;53.150;6.370;2023-07-20T03:38:28;5.53;;;4.93;;
52508;SDS011;38420;53.150;6.370;2023-07-20T03:43:23;6.18;;;5.00;;
52508;SDS011;38420;53.150;6.370;2023-07-20T03:45:50;9.50;;;5.30;;
52508;SDS011;38420;53.150;6.370;2023-07-20T03:48:22;6.28;;;5.15;;
52508;SDS011;38420;53.150;6.370;2023-07-20T03:50:52;6.15;;;5.43;;
52508;SDS011;38420;53.150;6.370;2023-07-20T03:53:19;6.47;;;5.43;;
52508;SDS011;38420;53.150;6.370;2023-07-20T03:55:45;8.20;;;5.63;;
52508;SDS011;38420;53.150;6.370;2023-07-20T03:58:12;7.07;;;5.03;;
52508;SDS011;38420;53.150;6.370;2023-07-20T04:00:38;8.45;;;5.72;;
52508;SDS011;38420;53.150;6.370;2023-07-20T04:03:04;7.97;;;5.22;;
52508;SDS011;38420;53.150;6.370;2023-07-20T04:05:30;9.13;;;5.32;;
52508;SDS011;38420;53.150;6.370;2023-07-20T04:07:56;8.13;;;4.97;;
52508;SDS011;38420;53.150;6.370;2023-07-20T04:10:22;5.68;;;4.65;;
52508;SDS011;38420;53.150;6.370;2023-07-20T04:12:47;6.13;;;5.20;;
52508;SDS011;38420;53.150;6.370;2023-07-20T04:15:13;7.72;;;4.90;;
52508;SDS011;38420;53.150;6.370;2023-07-20T04:17:39;7.57;;;6.03;;
52508;SDS011;38420;53.150;6.370;2023-07-20T04:20:08;7.70;;;5.00;;
52508;SDS011;38420;53.150;6.370;2023-07-20T04:22:34;6.35;;;5.28;;
52508;SDS011;38420;53.150;6.370;2023-07-20T04:25:00;5.75;;;4.65;;
52508;SDS011;38420;53.150;6.370;2023-07-20T04:27:26;5.80;;;5.20;;
52508;SDS011;38420;53.150;6.370;2023-07-20T04:29:52;6.72;;;5.75;;
52508;SDS011;38420;53.150;6.370;2023-07-20T04:32:18;7.75;;;5.63;;
52508;SDS011;38420;53.150;6.370;2023-07-20T04:34:43;12.48;;;6.03;;
52508;SDS011;38420;53.150;6.370;2023-07-20T04:37:09;6.88;;;4.78;;
52508;SDS011;38420;53.150;6.370;2023-07-20T04:39:34;8.77;;;5.80;;
52508;SDS011;38420;53.150;6.370;2023-07-20T04:42:00;7.75;;;5.47;;
52508;SDS011;38420;53.150;6.370;2023-07-20T04:44:26;7.13;;;5.47;;
52508;SDS011;38420;53.150;6.370;2023-07-20T04:46:51;8.32;;;5.75;;
52508;SDS011;38420;53.150;6.370;2023-07-20T04:49:17;8.55;;;6.43;;
52508;SDS011;38420;53.150;6.370;2023-07-20T04:51:42;8.32;;;5.63;;
52508;SDS011;38420;53.150;6.370;2023-07-20T04:54:08;6.57;;;5.65;;
52508;SDS011;38420;53.150;6.370;2023-07-20T04:56:34;8.68;;;5.60;;
52508;SDS011;38420;53.150;6.370;2023-07-20T04:58:59;12.23;;;6.63;;
52508;SDS011;38420;53.150;6.370;2023-07-20T05:01:25;8.43;;;5.60;;
52508;SDS011;38420;53.150;6.370;2023-07-20T05:03:51;8.52;;;5.13;;
52508;SDS011;38420;53.150;6.370;2023-07-20T05:06:17;6.60;;;5.03;;
52508;SDS011;38420;53.150;6.370;2023-07-20T05:08:43;7.95;;;5.20;;
52508;SDS011;38420;53.150;6.370;2023-07-20T05:11:10;8.35;;;4.80;;
52508;SDS011;38420;53.150;6.370;2023-07-20T05:13:36;5.60;;;4.53;;
52508;SDS011;38420;53.150;6.370;2023-07-20T05:16:02;7.40;;;5.15;;
52508;SDS011;38420;53.150;6.370;2023-07-20T05:18:28;7.50;;;5.70;;
52508;SDS011;38420;53.150;6.370;2023-07-20T05:20:54;9.32;;;6.32;;
52508;SDS011;38420;53.150;6.370;2023-07-20T05:23:20;8.40;;;5.93;;
52508;SDS011;38420;53.150;6.370;2023-07-20T05:25:47;7.60;;;5.30;;
52508;SDS011;38420;53.150;6.370;2023-07-20T05:28:19;6.60;;;5.65;;
52508;SDS011;38420;53.150;6.370;2023-07-20T05:30:44;7.15;;;5.22;;
52508;SDS011;38420;53.150;6.370;2023-07-20T05:33:10;6.60;;;5.07;;
52508;SDS011;38420;53.150;6.370;2023-07-20T05:35:36;8.60;;;5.45;;
52508;SDS011;38420;53.150;6.370;2023-07-20T05:38:02;7.32;;;5.05;;
52508;SDS011;38420;53.150;6.370;2023-07-20T05:40:30;6.45;;;4.57;;
52508;SDS011;38420;53.150;6.370;2023-07-20T05:42:55;7.18;;;4.93;;
52508;SDS011;38420;53.150;6.370;2023-07-20T05:45:22;5.85;;;4.75;;
52508;SDS011;38420;53.150;6.370;2023-07-20T05:47:47;5.95;;;4.95;;
52508;SDS011;38420;53.150;6.370;2023-07-20T05:50:13;8.15;;;5.28;;
52508;SDS011;38420;53.150;6.370;2023-07-20T05:52:39;7.50;;;5.85;;
52508;SDS011;38420;53.150;6.370;2023-07-20T05:55:05;7.88;;;5.10;;
52508;SDS011;38420;53.150;6.370;2023-07-20T05:57:32;6.75;;;5.38;;
52508;SDS011;38420;53.150;6.370;2023-07-20T05:59:58;7.57;;;5.43;;
52508;SDS011;38420;53.150;6.370;2023-07-20T06:02:23;6.90;;;4.70;;
52508;SDS011;38420;53.150;6.370;2023-07-20T06:04:49;8.23;;;5.53;;
52508;SDS011;38420;53.150;6.370;2023-07-20T06:07:15;27.95;;;16.50;;
52508;SDS011;38420;53.150;6.370;2023-07-20T06:09:40;14.77;;;9.50;;
52508;SDS011;38420;53.150;6.370;2023-07-20T06:12:06;14.73;;;9.88;;
52508;SDS011;38420;53.150;6.370;2023-07-20T06:14:32;5.03;;;4.40;;
52508;SDS011;38420;53.150;6.370;2023-07-20T06:16:58;7.63;;;4.55;;
52508;SDS011;38420;53.150;6.370;2023-07-20T06:19:24;4.72;;;3.45;;
52508;SDS011;38420;53.150;6.370;2023-07-20T06:21:50;5.63;;;2.90;;
52508;SDS011;38420;53.150;6.370;2023-07-20T06:24:16;22.85;;;14.93;;
52508;SDS011;38420;53.150;6.370;2023-07-20T06:26:42;6.55;;;3.92;;
52508;SDS011;38420;53.150;6.370;2023-07-20T06:29:08;9.57;;;4.90;;
52508;SDS011;38420;53.150;6.370;2023-07-20T06:31:34;11.52;;;3.20;;
52508;SDS011;38420;53.150;6.370;2023-07-20T06:34:00;5.32;;;2.40;;
52508;SDS011;38420;53.150;6.370;2023-07-20T06:36:26;4.43;;;2.38;;
52508;SDS011;38420;53.150;6.370;2023-07-20T06:38:52;3.45;;;2.28;;
52508;SDS011;38420;53.150;6.370;2023-07-20T06:41:18;4.93;;;2.17;;
52508;SDS011;38420;53.150;6.370;2023-07-20T06:43:44;3.45;;;1.67;;
52508;SDS011;38420;53.150;6.370;2023-07-20T06:46:10;4.88;;;1.90;;
52508;SDS011;38420;53.150;6.370;2023-07-20T06:48:35;7.13;;;1.67;;
52508;SDS011;38420;53.150;6.370;2023-07-20T06:51:01;7.18;;;1.70;;
52508;SDS011;38420;53.150;6.370;2023-07-20T06:53:28;4.90;;;1.38;;
52508;SDS011;38420;53.150;6.370;2023-07-20T06:55:54;3.55;;;1.73;;
52508;SDS011;38420;53.150;6.370;2023-07-20T06:58:22;2.05;;;1.30;;
52508;SDS011;38420;53.150;6.370;2023-07-20T07:00:50;3.45;;;1.60;;
52508;SDS011;38420;53.150;6.370;2023-07-20T07:03:16;4.95;;;1.50;;
52508;SDS011;38420;53.150;6.370;2023-07-20T07:05:43;2.00;;;1.25;;
52508;SDS011;38420;53.150;6.370;2023-07-20T07:08:09;6.22;;;1.60;;
52508;SDS011;38420;53.150;6.370;2023-07-20T07:10:35;5.55;;;1.42;;
52508;SDS011;38420;53.150;6.370;2023-07-20T07:13:01;4.32;;;1.60;;
52508;SDS011;38420;53.150;6.370;2023-07-20T07:15:27;3.88;;;1.65;;
52508;SDS011;38420;53.150;6.370;2023-07-20T07:17:53;2.85;;;1.60;;
52508;SDS011;38420;53.150;6.370;2023-07-20T07:20:19;2.90;;;1.83;;
52508;SDS011;38420;53.150;6.370;2023-07-20T07:22:44;4.55;;;1.35;;
52508;SDS011;38420;53.150;6.370;2023-07-20T07:25:11;4.22;;;1.42;;
52508;SDS011;38420;53.150;6.370;2023-07-20T07:27:37;4.97;;;1.42;;
52508;SDS011;38420;53.150;6.370;2023-07-20T07:30:03;6.88;;;1.60;;
52508;SDS011;38420;53.150;6.370;2023-07-20T07:32:30;4.15;;;1.80;;
52508;SDS011;38420;53.150;6.370;2023-07-20T07:34:56;4.05;;;1.90;;
52508;SDS011;38420;53.150;6.370;2023-07-20T07:37:23;5.53;;;2.55;;
52508;SDS011;38420;53.150;6.370;2023-07-20T07:39:49;6.40;;;2.28;;
52508;SDS011;38420;53.150;6.370;2023-07-20T07:42:14;3.38;;;2.10;;
52508;SDS011;38420;53.150;6.370;2023-07-20T07:44:40;6.10;;;2.00;;
52508;SDS011;38420;53.150;6.370;2023-07-20T07:47:06;4.05;;;1.90;;
52508;SDS011;38420;53.150;6.370;2023-07-20T07:49:32;9.60;;;2.55;;
52508;SDS011;38420;53.150;6.370;2023-07-20T07:51:57;5.50;;;2.10;;
52508;SDS011;38420;53.150;6.370;2023-07-20T07:54:23;6.38;;;1.83;;
52508;SDS011;38420;53.150;6.370;2023-07-20T07:56:48;5.05;;;2.10;;
52508;SDS011;38420;53.150;6.370;2023-07-20T07:59:16;4.85;;;2.50;;
52508;SDS011;38420;53.150;6.370;2023-07-20T08:01:42;4.75;;;1.98;;
52508;SDS011;38420;53.150;6.370;2023-07-20T08:04:07;15.05;;;2.60;;
52508;SDS011;38420;53.150;6.370;2023-07-20T08:06:33;7.32;;;2.88;;
52508;SDS011;38420;53.150;6.370;2023-07-20T08:08:59;4.10;;;1.65;;
52508;SDS011;38420;53.150;6.370;2023-07-20T08:11:24;5.22;;;1.70;;
52508;SDS011;38420;53.150;6.370;2023-07-20T08:13:50;5.95;;;1.83;;
52508;SDS011;38420;53.150;6.370;2023-07-20T08:16:16;6.32;;;1.80;;
52508;SDS011;38420;53.150;6.370;2023-07-20T08:18:41;3.83;;;1.50;;
52508;SDS011;38420;53.150;6.370;2023-07-20T08:21:08;5.82;;;1.08;;
52508;SDS011;38420;53.150;6.370;2023-07-20T08:23:34;5.95;;;2.05;;
52508;SDS011;38420;53.150;6.370;2023-07-20T08:25:59;4.78;;;1.73;;
52508;SDS011;38420;53.150;6.370;2023-07-20T08:28:26;4.55;;;1.50;;
52508;SDS011;38420;53.150;6.370;2023-07-20T08:30:52;3.58;;;1.30;;
52508;SDS011;38420;53.150;6.370;2023-07-20T08:33:17;4.38;;;2.00;;
52508;SDS011;38420;53.150;6.370;2023-07-20T08:35:47;3.92;;;1.48;;
52508;SDS011;38420;53.150;6.370;2023-07-20T08:38:12;3.67;;;1.30;;
52508;SDS011;38420;53.150;6.370;2023-07-20T08:40:45;4.15;;;1.38;;
52508;SDS011;38420;53.150;6.370;2023-07-20T08:43:11;5.10;;;1.52;;
52508;SDS011;38420;53.150;6.370;2023-07-20T08:45:38;3.95;;;1.67;;
52508;SDS011;38420;53.150;6.370;2023-07-20T08:48:05;4.40;;;1.40;;
52508;SDS011;38420;53.150;6.370;2023-07-20T08:50:32;5.20;;;1.58;;
52508;SDS011;38420;53.150;6.370;2023-07-20T08:52:59;2.67;;;1.30;;
52508;SDS011;38420;53.150;6.370;2023-07-20T08:55:25;3.10;;;1.33;;
52508;SDS011;38420;53.150;6.370;2023-07-20T08:57:55;4.10;;;1.17;;
52508;SDS011;38420;53.150;6.370;2023-07-20T09:00:22;2.92;;;1.20;;
52508;SDS011;38420;53.150;6.370;2023-07-20T09:02:49;3.97;;;1.08;;
52508;SDS011;38420;53.150;6.370;2023-07-20T09:05:17;3.25;;;0.98;;
52508;SDS011;38420;53.150;6.370;2023-07-20T09:07:43;2.03;;;0.95;;
52508;SDS011;38420;53.150;6.370;2023-07-20T09:10:09;2.55;;;0.90;;
52508;SDS011;38420;53.150;6.370;2023-07-20T09:12:36;3.55;;;1.38;;
52508;SDS011;38420;53.150;6.370;2023-07-20T09:15:06;7.30;;;1.05;;
52508;SDS011;38420;53.150;6.370;2023-07-20T09:17:32;4.00;;;1.10;;
52508;SDS011;38420;53.150;6.370;2023-07-20T09:19:58;2.75;;;0.80;;
52508;SDS011;38420;53.150;6.370;2023-07-20T09:22:30;2.85;;;1.00;;
52508;SDS011;38420;53.150;6.370;2023-07-20T09:24:57;4.00;;;0.85;;
52508;SDS011;38420;53.150;6.370;2023-07-20T09:27:56;3.15;;;1.08;;
52508;SDS011;38420;53.150;6.370;2023-07-20T09:30:15;3.42;;;0.95;;
52508;SDS011;38420;53.150;6.370;2023-07-20T09:32:46;4.38;;;0.90;;
52508;SDS011;38420;53.150;6.370;2023-07-20T09:37:39;2.33;;;0.75;;
52508;SDS011;38420;53.150;6.370;2023-07-20T09:40:08;2.95;;;0.88;;
52508;SDS011;38420;53.150;6.370;2023-07-20T09:42:34;3.50;;;1.00;;
52508;SDS011;38420;53.150;6.370;2023-07-20T09:45:01;2.53;;;0.93;;
52508;SDS011;38420;53.150;6.370;2023-07-20T09:47:27;1.70;;;0.68;;
52508;SDS011;38420;53.150;6.370;2023-07-20T09:49:57;2.33;;;0.80;;
52508;SDS011;38420;53.150;6.370;2023-07-20T09:54:51;3.20;;;0.80;;
52508;SDS011;38420;53.150;6.370;2023-07-20T09:57:17;5.00;;;0.85;;
52508;SDS011;38420;53.150;6.370;2023-07-20T09:59:43;4.07;;;0.90;;
52508;SDS011;38420;53.150;6.370;2023-07-20T10:02:15;5.00;;;1.48;;
52508;SDS011;38420;53.150;6.370;2023-07-20T10:04:46;2.45;;;0.70;;
52508;SDS011;38420;53.150;6.370;2023-07-20T10:07:14;1.85;;;0.70;;
52508;SDS011;38420;53.150;6.370;2023-07-20T10:09:41;1.80;;;0.80;;
52508;SDS011;38420;53.150;6.370;2023-07-20T10:12:10;4.82;;;0.85;;
52508;SDS011;38420;53.150;6.370;2023-07-20T10:14:38;2.67;;;1.25;;
52508;SDS011;38420;53.150;6.370;2023-07-20T10:17:09;2.35;;;0.82;;
52508;SDS011;38420;53.150;6.370;2023-07-20T10:24:41;3.17;;;0.90;;
52508;SDS011;38420;53.150;6.370;2023-07-20T10:27:09;3.15;;;0.98;;
52508;SDS011;38420;53.150;6.370;2023-07-20T10:29:35;1.55;;;0.65;;
52508;SDS011;38420;53.150;6.370;2023-07-20T10:32:01;3.63;;;0.98;;
52508;SDS011;38420;53.150;6.370;2023-07-20T10:34:27;2.88;;;0.88;;
52508;SDS011;38420;53.150;6.370;2023-07-20T10:36:53;4.35;;;0.90;;
52508;SDS011;38420;53.150;6.370;2023-07-20T10:39:26;2.72;;;0.88;;
52508;SDS011;38420;53.150;6.370;2023-07-20T10:42:03;2.17;;;0.70;;
52508;SDS011;38420;53.150;6.370;2023-07-20T10:44:32;3.28;;;0.88;;
52508;SDS011;38420;53.150;6.370;2023-07-20T10:46:59;3.88;;;1.13;;
52508;SDS011;38420;53.150;6.370;2023-07-20T10:49:33;4.30;;;1.00;;
52508;SDS011;38420;53.150;6.370;2023-07-20T10:52:00;4.32;;;1.10;;
52508;SDS011;38420;53.150;6.370;2023-07-20T10:56:56;5.70;;;1.08;;
52508;SDS011;38420;53.150;6.370;2023-07-20T11:01:48;2.35;;;1.08;;
52508;SDS011;38420;53.150;6.370;2023-07-20T11:04:14;4.65;;;1.10;;
52508;SDS011;38420;53.150;6.370;2023-07-20T11:06:43;4.40;;;0.90;;
52508;SDS011;38420;53.150;6.370;2023-07-20T11:09:13;2.38;;;0.80;;
52508;SDS011;38420;53.150;6.370;2023-07-20T11:11:43;4.35;;;1.00;;
52508;SDS011;38420;53.150;6.370;2023-07-20T11:14:10;4.55;;;1.13;;
52508;SDS011;38420;53.150;6.370;2023-07-20T11:16:46;6.22;;;1.65;;
52508;SDS011;38420;53.150;6.370;2023-07-20T11:19:22;2.40;;;0.95;;
52508;SDS011;38420;53.150;6.370;2023-07-20T11:21:50;3.92;;;1.00;;
52508;SDS011;38420;53.150;6.370;2023-07-20T11:24:22;4.13;;;1.35;;
52508;SDS011;38420;53.150;6.370;2023-07-20T11:26:49;2.97;;;1.17;;
52508;SDS011;38420;53.150;6.370;2023-07-20T11:29:20;2.70;;;0.80;;
52508;SDS011;38420;53.150;6.370;2023-07-20T11:31:48;2.33;;;0.85;;
52508;SDS011;38420;53.150;6.370;2023-07-20T11:34:15;2.38;;;1.00;;
52508;SDS011;38420;53.150;6.370;2023-07-20T11:36:42;4.47;;;1.52;;
52508;SDS011;38420;53.150;6.370;2023-07-20T11:39:16;3.47;;;1.08;;
52508;SDS011;38420;53.150;6.370;2023-07-20T11:41:48;4.93;;;1.10;;
52508;SDS011;38420;53.150;6.370;2023-07-20T11:44:18;1.83;;;1.17;;
52508;SDS011;38420;53.150;6.370;2023-07-20T11:46:59;3.53;;;1.02;;
52508;SDS011;38420;53.150;6.370;2023-07-20T11:49:29;2.47;;;1.17;;
52508;SDS011;38420;53.150;6.370;2023-07-20T11:51:55;2.03;;;1.00;;
52508;SDS011;38420;53.150;6.370;2023-07-20T11:54:22;3.00;;;1.25;;
52508;SDS011;38420;53.150;6.370;2023-07-20T11:56:53;5.05;;;2.00;;
52508;SDS011;38420;53.150;6.370;2023-07-20T11:59:20;22.63;;;2.72;;
52508;SDS011;38420;53.150;6.370;2023-07-20T12:01:45;3.78;;;1.15;;
52508;SDS011;38420;53.150;6.370;2023-07-20T12:04:11;6.57;;;1.60;;
52508;SDS011;38420;53.150;6.370;2023-07-20T12:06:37;262.63;;;26.73;;
52508;SDS011;38420;53.150;6.370;2023-07-20T12:09:02;7.00;;;1.75;;
52508;SDS011;38420;53.150;6.370;2023-07-20T12:11:38;2.30;;;0.90;;
52508;SDS011;38420;53.150;6.370;2023-07-20T12:14:04;3.00;;;0.73;;
52508;SDS011;38420;53.150;6.370;2023-07-20T12:16:34;2.40;;;1.17;;
52508;SDS011;38420;53.150;6.370;2023-07-20T12:19:07;2.10;;;0.90;;
52508;SDS011;38420;53.150;6.370;2023-07-20T12:21:35;3.65;;;1.00;;
52508;SDS011;38420;53.150;6.370;2023-07-20T12:24:02;3.97;;;1.30;;
52508;SDS011;38420;53.150;6.370;2023-07-20T12:26:31;5.70;;;1.42;;
52508;SDS011;38420;53.150;6.370;2023-07-20T12:28:58;3.63;;;1.20;;
52508;SDS011;38420;53.150;6.370;2023-07-20T12:31:24;2.60;;;1.40;;
52508;SDS011;38420;53.150;6.370;2023-07-20T12:33:51;3.13;;;1.77;;
52508;SDS011;38420;53.150;6.370;2023-07-20T12:36:17;5.03;;;1.80;;
52508;SDS011;38420;53.150;6.370;2023-07-20T12:38:43;4.53;;;1.45;;
52508;SDS011;38420;53.150;6.370;2023-07-20T12:41:10;4.57;;;1.60;;
52508;SDS011;38420;53.150;6.370;2023-07-20T12:43:43;2.60;;;1.13;;
52508;SDS011;38420;53.150;6.370;2023-07-20T12:46:09;4.93;;;2.30;;
52508;SDS011;38420;53.150;6.370;2023-07-20T12:48:37;3.88;;;1.67;;
52508;SDS011;38420;53.150;6.370;2023-07-20T12:51:03;1.95;;;1.08;;
52508;SDS011;38420;53.150;6.370;2023-07-20T12:53:30;2.58;;;1.05;;
52508;SDS011;38420;53.150;6.370;2023-07-20T12:55:56;4.55;;;1.20;;
52508;SDS011;38420;53.150;6.370;2023-07-20T12:58:22;3.83;;;1.63;;
52508;SDS011;38420;53.150;6.370;2023-07-20T13:00:48;3.97;;;1.55;;
52508;SDS011;38420;53.150;6.370;2023-07-20T13:03:14;4.07;;;1.55;;
52508;SDS011;38420;53.150;6.370;2023-07-20T13:05:41;4.45;;;1.35;;
52508;SDS011;38420;53.150;6.370;2023-07-20T13:08:07;3.80;;;1.38;;
52508;SDS011;38420;53.150;6.370;2023-07-20T13:10:32;4.03;;;1.77;;
52508;SDS011;38420;53.150;6.370;2023-07-20T13:12:59;2.67;;;1.20;;
52508;SDS011;38420;53.150;6.370;2023-07-20T13:15:29;4.00;;;1.30;;
52508;SDS011;38420;53.150;6.370;2023-07-20T13:17:57;2.72;;;1.00;;
52508;SDS011;38420;53.150;6.370;2023-07-20T13:20:23;4.30;;;1.25;;
52508;SDS011;38420;53.150;6.370;2023-07-20T13:22:50;5.22;;;1.67;;
52508;SDS011;38420;53.150;6.370;2023-07-20T13:25:16;3.90;;;1.60;;
52508;SDS011;38420;53.150;6.370;2023-07-20T13:27:42;4.38;;;1.55;;
52508;SDS011;38420;53.150;6.370;2023-07-20T13:30:07;20.98;;;6.82;;
52508;SDS011;38420;53.150;6.370;2023-07-20T13:32:35;2.58;;;1.30;;
52508;SDS011;38420;53.150;6.370;2023-07-20T13:35:01;5.45;;;1.42;;
52508;SDS011;38420;53.150;6.370;2023-07-20T13:37:27;5.65;;;1.23;;
52508;SDS011;38420;53.150;6.370;2023-07-20T13:39:53;3.97;;;1.35;;
52508;SDS011;38420;53.150;6.370;2023-07-20T13:42:19;3.72;;;1.10;;
52508;SDS011;38420;53.150;6.370;2023-07-20T13:44:46;3.00;;;1.00;;
52508;SDS011;38420;53.150;6.370;2023-07-20T13:47:15;3.13;;;1.02;;
52508;SDS011;38420;53.150;6.370;2023-07-20T13:49:41;2.70;;;0.95;;
52508;SDS011;38420;53.150;6.370;2023-07-20T13:52:06;5.43;;;1.60;;
52508;SDS011;38420;53.150;6.370;2023-07-20T13:54:32;2.95;;;0.80;;
52508;SDS011;38420;53.150;6.370;2023-07-20T13:56:58;5.80;;;2.00;;
52508;SDS011;38420;53.150;6.370;2023-07-20T13:59:23;4.63;;;1.70;;
52508;SDS011;38420;53.150;6.370;2023-07-20T14:01:50;3.67;;;1.10;;
52508;SDS011;38420;53.150;6.370;2023-07-20T14:04:15;3.05;;;0.80;;
52508;SDS011;38420;53.150;6.370;2023-07-20T14:06:42;2.38;;;1.10;;
52508;SDS011;38420;53.150;6.370;2023-07-20T14:09:08;3.70;;;1.00;;
52508;SDS011;38420;53.150;6.370;2023-07-20T14:11:33;2.90;;;1.13;;
52508;SDS011;38420;53.150;6.370;2023-07-20T14:13:59;5.07;;;2.83;;
52508;SDS011;38420;53.150;6.370;2023-07-20T14:16:25;1.58;;;0.90;;
52508;SDS011;38420;53.150;6.370;2023-07-20T14:18:51;2.90;;;1.00;;
52508;SDS011;38420;53.150;6.370;2023-07-20T14:21:18;6.63;;;2.25;;
52508;SDS011;38420;53.150;6.370;2023-07-20T14:23:48;4.38;;;1.33;;
52508;SDS011;38420;53.150;6.370;2023-07-20T14:26:16;3.85;;;1.15;;
52508;SDS011;38420;53.150;6.370;2023-07-20T14:28:41;4.60;;;1.40;;
52508;SDS011;38420;53.150;6.370;2023-07-20T14:31:07;4.70;;;1.20;;
52508;SDS011;38420;53.150;6.370;2023-07-20T14:33:33;2.45;;;1.10;;
52508;SDS011;38420;53.150;6.370;2023-07-20T14:35:59;2.78;;;1.00;;
52508;SDS011;38420;53.150;6.370;2023-07-20T14:38:26;3.33;;;1.10;;
52508;SDS011;38420;53.150;6.370;2023-07-20T14:40:58;5.03;;;1.52;;
52508;SDS011;38420;53.150;6.370;2023-07-20T14:43:24;5.13;;;1.50;;
52508;SDS011;38420;53.150;6.370;2023-07-20T14:45:50;4.25;;;1.48;;
52508;SDS011;38420;53.150;6.370;2023-07-20T14:48:15;6.30;;;2.00;;
52508;SDS011;38420;53.150;6.370;2023-07-20T14:50:41;3.75;;;1.52;;
52508;SDS011;38420;53.150;6.370;2023-07-20T14:53:10;3.47;;;1.30;;
52508;SDS011;38420;53.150;6.370;2023-07-20T14:55:37;3.25;;;1.65;;
52508;SDS011;38420;53.150;6.370;2023-07-20T14:58:02;6.10;;;1.88;;
52508;SDS011;38420;53.150;6.370;2023-07-20T15:00:28;5.20;;;1.27;;
52508;SDS011;38420;53.150;6.370;2023-07-20T15:02:55;3.60;;;1.52;;
52508;SDS011;38420;53.150;6.370;2023-07-20T15:05:21;3.90;;;1.73;;
52508;SDS011;38420;53.150;6.370;2023-07-20T15:07:47;6.05;;;1.85;;
52508;SDS011;38420;53.150;6.370;2023-07-20T15:10:13;3.28;;;1.45;;